createdAt,value
2022-11-13T00:01:13.725Z,77.97
2022-11-13T00:04:00.831Z,106.00
2022-11-13T00:06:48.371Z,64.85
2022-11-13T00:09:35.878Z,64.42
2022-11-13T00:12:22.996Z,66.30
2022-11-13T00:15:10.712Z,72.85
2022-11-13T00:17:59.393Z,71.65
2022-11-13T00:20:46.763Z,65.00
2022-11-13T00:23:34.846Z,58.78
2022-11-13T00:26:24.246Z,61.90
2022-11-13T00:29:11.557Z,60.23
2022-11-13T00:31:59.171Z,65.87
2022-11-13T00:34:48.084Z,61.50
2022-11-13T00:37:35.571Z,67.78
2022-11-13T00:40:23.152Z,66.33
2022-11-13T00:43:10.327Z,67.65
2022-11-13T00:45:57.533Z,69.27
2022-11-13T00:48:44.941Z,72.50
2022-11-13T00:51:33.138Z,68.37
2022-11-13T00:54:20.409Z,74.12
2022-11-13T00:57:07.973Z,69.58
2022-11-13T00:59:55.139Z,68.30
2022-11-13T01:02:42.751Z,65.47
2022-11-13T01:05:29.846Z,61.92
2022-11-13T01:08:17.617Z,67.27
2022-11-13T01:11:11.004Z,64.37
2022-11-13T01:16:44.940Z,66.05
2022-11-13T01:19:32.412Z,64.53
2022-11-13T01:22:19.428Z,62.00
2022-11-13T01:25:07.330Z,63.45
2022-11-13T01:27:54.555Z,67.10
2022-11-13T01:30:41.598Z,65.35
2022-11-13T01:33:29.626Z,62.88
2022-11-13T01:36:19.952Z,60.63
2022-11-13T01:39:07.436Z,61.53
2022-11-13T01:41:55.111Z,58.05
2022-11-13T01:44:58.724Z,61.05
2022-11-13T01:47:45.690Z,59.18
2022-11-13T01:50:33.288Z,63.15
2022-11-13T01:53:21.207Z,58.00
2022-11-13T01:56:08.903Z,55.63
2022-11-13T01:59:08.470Z,55.08
2022-11-13T02:01:57.138Z,57.62
2022-11-13T02:04:45.346Z,57.43
2022-11-13T02:07:32.589Z,59.65
2022-11-13T02:10:19.701Z,59.40
2022-11-13T02:13:07.287Z,61.30
2022-11-13T02:15:54.912Z,59.05
2022-11-13T02:18:42.741Z,57.58
2022-11-13T02:21:32.960Z,58.35
2022-11-13T02:24:32.675Z,59.35
2022-11-13T02:27:32.531Z,55.95
2022-11-13T02:30:28.499Z,60.45
2022-11-13T02:33:30.713Z,52.15
2022-11-13T02:36:18.484Z,54.40
2022-11-13T02:39:09.143Z,56.25
2022-11-13T02:41:56.375Z,53.35
2022-11-13T02:44:43.873Z,54.73
2022-11-13T02:47:30.830Z,50.50
2022-11-13T02:50:19.517Z,52.20
2022-11-13T02:53:07.890Z,49.98
2022-11-13T02:55:55.598Z,50.03
2022-11-13T02:58:43.423Z,52.33
2022-11-13T03:01:30.661Z,49.65
2022-11-13T03:04:18.193Z,48.78
2022-11-13T03:07:05.409Z,51.83
2022-11-13T03:09:52.619Z,44.75
2022-11-13T03:12:40.669Z,44.75
2022-11-13T03:15:28.086Z,46.05
2022-11-13T03:18:15.932Z,41.58
2022-11-13T03:21:12.812Z,42.73
2022-11-13T03:24:00.215Z,43.52
2022-11-13T03:26:47.618Z,44.13
2022-11-13T03:29:34.889Z,41.28
2022-11-13T03:32:22.044Z,42.65
2022-11-13T03:35:09.691Z,39.10
2022-11-13T03:37:57.222Z,38.92
2022-11-13T03:40:44.788Z,36.17
2022-11-13T03:43:32.092Z,36.20
2022-11-13T03:46:19.168Z,35.10
2022-11-13T03:49:06.933Z,35.55
2022-11-13T03:51:54.136Z,35.30
2022-11-13T03:54:41.662Z,34.53
2022-11-13T03:57:29.011Z,34.45
2022-11-13T04:00:17.374Z,31.42
2022-11-13T04:03:04.902Z,28.20
2022-11-13T04:05:52.782Z,26.07
2022-11-13T04:08:39.981Z,28.38
2022-11-13T04:11:27.453Z,31.57
2022-11-13T04:14:14.440Z,28.25
2022-11-13T04:17:01.645Z,30.85
2022-11-13T04:19:49.331Z,32.05
2022-11-13T04:22:36.583Z,27.90
2022-11-13T04:25:24.862Z,31.97
2022-11-13T04:28:12.876Z,31.60
2022-11-13T04:31:00.181Z,35.35
2022-11-13T04:33:47.261Z,27.00
2022-11-13T04:36:34.392Z,27.80
2022-11-13T04:39:21.993Z,28.65
2022-11-13T04:42:29.338Z,29.87
2022-11-13T04:45:21.627Z,28.00
2022-11-13T04:48:09.152Z,32.23
2022-11-13T04:50:56.210Z,32.98
2022-11-13T04:53:43.457Z,31.65
2022-11-13T04:56:30.860Z,33.45
2022-11-13T04:59:18.473Z,34.05
2022-11-13T05:02:06.381Z,37.03
2022-11-13T05:04:53.596Z,35.20
2022-11-13T05:07:42.721Z,33.08
2022-11-13T05:10:30.254Z,35.15
2022-11-13T05:13:17.384Z,32.80
2022-11-13T05:16:06.493Z,34.27
2022-11-13T05:18:53.532Z,31.75
2022-11-13T05:21:41.132Z,32.78
2022-11-13T05:24:28.438Z,31.57
2022-11-13T05:27:17.635Z,31.57
2022-11-13T05:30:05.811Z,32.28
2022-11-13T05:32:53.856Z,31.23
2022-11-13T05:35:40.915Z,32.78
2022-11-13T05:38:30.199Z,32.30
2022-11-13T05:41:20.247Z,30.95
2022-11-13T05:44:07.544Z,34.73
2022-11-13T05:46:54.528Z,33.48
2022-11-13T05:49:41.775Z,26.50
2022-11-13T05:52:28.851Z,26.87
2022-11-13T05:55:16.053Z,28.02
2022-11-13T05:58:03.357Z,28.02
2022-11-13T06:00:51.059Z,30.20
2022-11-13T06:03:38.993Z,27.48
2022-11-13T06:06:27.011Z,28.98
2022-11-13T06:09:19.399Z,30.52
2022-11-13T06:12:06.991Z,26.73
2022-11-13T06:14:54.210Z,30.55
2022-11-13T06:17:41.364Z,30.55
2022-11-13T06:20:28.833Z,32.93
2022-11-13T06:23:16.519Z,32.38
2022-11-13T06:26:06.476Z,31.12
2022-11-13T06:28:53.766Z,35.30
2022-11-13T06:31:40.763Z,37.05
2022-11-13T06:34:28.151Z,37.48
2022-11-13T06:37:15.582Z,32.38
2022-11-13T06:40:02.992Z,30.43
2022-11-13T06:42:50.116Z,31.30
2022-11-13T06:45:37.616Z,30.40
2022-11-13T06:48:25.457Z,28.98
2022-11-13T06:51:22.284Z,29.25
2022-11-13T06:54:10.001Z,29.72
2022-11-13T06:56:57.380Z,31.02
2022-11-13T06:59:44.812Z,29.55
2022-11-13T07:02:32.329Z,30.92
2022-11-13T07:05:19.780Z,28.38
2022-11-13T07:08:07.161Z,29.18
2022-11-13T07:10:56.179Z,25.65
2022-11-13T07:13:43.372Z,25.80
2022-11-13T07:16:44.017Z,30.00
2022-11-13T07:19:19.749Z,28.77
2022-11-13T07:22:07.239Z,27.70
2022-11-13T07:24:54.688Z,30.17
2022-11-13T07:27:46.359Z,31.37
2022-11-13T07:30:33.642Z,37.65
2022-11-13T07:33:21.021Z,32.10
2022-11-13T07:36:09.164Z,35.17
2022-11-13T07:39:00.121Z,32.50
2022-11-13T07:41:45.933Z,31.30
2022-11-13T07:44:53.684Z,31.77
2022-11-13T07:47:22.229Z,28.05
2022-11-13T07:50:11.123Z,32.20
2022-11-13T07:53:00.443Z,34.08
2022-11-13T07:55:48.226Z,30.05
2022-11-13T07:58:35.294Z,34.15
2022-11-13T08:01:22.473Z,34.45
2022-11-13T08:04:09.692Z,37.20
2022-11-13T08:06:57.271Z,41.30
2022-11-13T08:09:44.676Z,34.67
2022-11-13T08:12:31.857Z,31.10
2022-11-13T08:15:19.291Z,30.80
2022-11-13T08:18:07.418Z,27.62
2022-11-13T08:20:55.137Z,28.92
2022-11-13T08:23:43.139Z,26.07
2022-11-13T08:26:30.308Z,27.40
2022-11-13T08:29:17.388Z,27.25
2022-11-13T08:32:05.356Z,27.22
2022-11-13T08:34:52.850Z,27.27
2022-11-13T08:37:40.198Z,24.50
2022-11-13T08:40:27.574Z,22.50
2022-11-13T08:43:14.791Z,24.77
2022-11-13T08:46:02.019Z,23.00
2022-11-13T08:48:49.309Z,23.60
2022-11-13T08:51:36.865Z,23.92
2022-11-13T08:54:25.078Z,24.63
2022-11-13T08:57:12.371Z,20.60
2022-11-13T08:59:59.952Z,20.85
2022-11-13T09:02:47.528Z,25.48
2022-11-13T09:05:34.329Z,20.37
2022-11-13T09:08:21.997Z,19.70
2022-11-13T09:11:08.663Z,20.80
2022-11-13T09:13:56.532Z,19.35
2022-11-13T09:16:43.888Z,17.10
2022-11-13T09:19:31.418Z,15.43
2022-11-13T09:22:18.796Z,15.53
2022-11-13T09:25:06.625Z,14.07
2022-11-13T09:27:55.683Z,12.65
2022-11-13T09:30:43.158Z,11.68
2022-11-13T09:33:30.527Z,11.73
2022-11-13T09:36:18.290Z,13.83
2022-11-13T09:39:05.976Z,16.40
2022-11-13T09:42:02.802Z,11.80
2022-11-13T09:44:56.373Z,12.82
2022-11-13T09:47:45.239Z,10.85
2022-11-13T09:50:33.733Z,13.10
2022-11-13T09:53:21.057Z,9.70
2022-11-13T09:56:28.217Z,10.70
2022-11-13T09:59:42.978Z,10.35
2022-11-13T10:02:49.805Z,10.28
2022-11-13T10:05:55.281Z,10.40
2022-11-13T10:08:45.770Z,10.70
2022-11-13T10:11:50.391Z,9.65
2022-11-13T10:14:42.319Z,9.15
2022-11-13T10:17:40.727Z,9.88
2022-11-13T10:20:33.447Z,9.30
2022-11-13T10:23:35.759Z,10.15
2022-11-13T10:26:25.652Z,11.28
2022-11-13T10:29:15.400Z,9.38
2022-11-13T10:32:23.171Z,9.95
2022-11-13T10:35:25.797Z,9.05
2022-11-13T10:38:27.673Z,8.95
2022-11-13T10:41:19.567Z,9.28
2022-11-13T10:44:09.918Z,8.95
2022-11-13T10:47:26.451Z,10.65
2022-11-13T10:50:26.792Z,8.55
2022-11-13T10:53:20.691Z,10.53
2022-11-13T10:56:16.926Z,9.15
2022-11-13T10:59:13.589Z,9.65
2022-11-13T11:02:03.567Z,9.30
2022-11-13T11:04:50.412Z,9.28
2022-11-13T11:07:42.030Z,9.38
2022-11-13T11:10:35.153Z,10.30
2022-11-13T11:13:23.870Z,10.20
2022-11-13T11:16:14.590Z,10.23
2022-11-13T11:19:04.034Z,10.40
2022-11-13T11:21:54.360Z,10.13
2022-11-13T11:24:50.671Z,11.18
2022-11-13T11:27:40.814Z,11.88
2022-11-13T11:30:30.854Z,10.23
2022-11-13T11:33:30.224Z,9.40
2022-11-13T11:36:23.769Z,11.70
2022-11-13T11:39:13.931Z,9.70
2022-11-13T11:42:33.006Z,9.48
2022-11-13T11:45:35.538Z,10.40
2022-11-13T11:48:25.775Z,10.98
2022-11-13T11:51:27.240Z,9.78
2022-11-13T11:54:38.002Z,12.35
2022-11-13T11:57:28.159Z,10.72
2022-11-13T12:00:17.576Z,11.63
2022-11-13T12:03:40.801Z,10.82
2022-11-13T12:06:33.718Z,11.18
2022-11-13T12:09:24.577Z,11.22
2022-11-13T12:12:23.047Z,12.25
2022-11-13T12:15:28.332Z,12.25
2022-11-13T12:18:43.102Z,12.28
2022-11-13T12:21:33.487Z,10.55
2022-11-13T12:24:38.566Z,12.33
2022-11-13T12:27:34.224Z,11.55
2022-11-13T12:30:24.151Z,11.57
2022-11-13T12:33:26.998Z,11.50
2022-11-13T12:36:15.060Z,13.78
2022-11-13T12:39:33.926Z,14.33
2022-11-13T12:42:36.014Z,11.30
2022-11-13T12:45:29.213Z,12.00
2022-11-13T12:48:19.616Z,11.20
2022-11-13T12:51:09.556Z,13.30
2022-11-13T12:53:57.641Z,14.20
2022-11-13T12:56:45.052Z,13.80
2022-11-13T12:59:37.704Z,13.50
2022-11-13T13:03:01.040Z,14.83
2022-11-13T13:09:22.161Z,13.65
2022-11-13T13:12:41.048Z,12.53
2022-11-13T13:15:43.719Z,12.35
2022-11-13T13:18:33.727Z,11.43
2022-11-13T13:27:26.767Z,13.85
2022-11-13T13:30:20.111Z,12.20
2022-11-13T13:33:16.917Z,12.98
2022-11-13T13:36:07.114Z,14.28
2022-11-13T13:39:18.579Z,14.20
2022-11-13T13:42:42.142Z,13.55
2022-11-13T13:46:04.382Z,14.60
2022-11-13T13:48:53.272Z,14.25
2022-11-13T13:51:50.067Z,11.05
2022-11-13T13:54:38.723Z,11.65
2022-11-13T13:57:27.319Z,11.68
2022-11-13T14:00:15.989Z,12.95
2022-11-13T14:03:04.164Z,14.05
2022-11-13T14:05:51.249Z,15.48
2022-11-13T14:08:38.375Z,17.80
2022-11-13T14:11:32.914Z,18.02
2022-11-13T14:14:23.127Z,18.80
2022-11-13T14:17:11.913Z,18.87
2022-11-13T14:20:01.291Z,22.02
2022-11-13T14:22:56.273Z,19.55
2022-11-13T14:25:41.494Z,19.90
2022-11-13T14:28:31.438Z,20.95
2022-11-13T14:31:18.923Z,21.70
2022-11-13T14:34:11.498Z,20.55
2022-11-13T14:37:18.281Z,21.50
2022-11-13T14:40:18.156Z,23.95
2022-11-13T14:43:07.544Z,21.90
2022-11-13T14:45:56.682Z,20.40
2022-11-13T14:48:47.217Z,19.35
2022-11-13T14:51:35.651Z,19.98
2022-11-13T14:55:08.156Z,19.00
2022-11-13T14:57:26.162Z,21.02
2022-11-13T15:00:15.798Z,18.07
2022-11-13T15:03:04.795Z,20.75
2022-11-13T15:05:52.220Z,18.32
2022-11-13T15:08:39.652Z,19.42
2022-11-13T15:11:27.510Z,19.82
2022-11-13T15:14:16.396Z,21.87
2022-11-13T15:17:03.508Z,27.30
2022-11-13T15:19:52.701Z,22.52
2022-11-13T15:22:40.625Z,24.52
2022-11-13T15:25:28.268Z,21.87
2022-11-13T15:28:15.656Z,21.62
2022-11-13T15:31:02.559Z,20.48
2022-11-13T15:33:49.761Z,18.80
2022-11-13T15:36:36.659Z,20.52
2022-11-13T15:39:24.334Z,23.30
2022-11-13T15:42:16.053Z,22.20
2022-11-13T15:45:05.441Z,22.77
2022-11-13T15:47:52.514Z,20.75
2022-11-13T15:50:39.601Z,22.75
2022-11-13T15:53:26.834Z,21.65
2022-11-13T15:56:14.524Z,21.82
2022-11-13T15:59:01.667Z,22.85
2022-11-13T16:01:51.797Z,20.90
2022-11-13T16:04:55.645Z,23.02
2022-11-13T16:07:32.233Z,21.87
2022-11-13T16:10:20.333Z,21.05
2022-11-13T16:13:07.646Z,21.73
2022-11-13T16:15:55.492Z,21.87
2022-11-13T16:18:42.671Z,22.15
2022-11-13T16:21:30.442Z,21.23
2022-11-13T16:24:21.083Z,23.45
2022-11-13T16:27:07.399Z,24.15
2022-11-13T16:29:55.007Z,26.60
2022-11-13T16:32:42.075Z,25.23
2022-11-13T16:35:29.145Z,29.30
2022-11-13T16:38:16.415Z,27.40
2022-11-13T16:41:03.840Z,27.25
2022-11-13T16:43:50.881Z,25.30
2022-11-13T16:46:41.672Z,25.02
2022-11-13T16:49:28.761Z,26.48
2022-11-13T16:52:16.537Z,28.67
2022-11-13T16:55:06.725Z,31.82
2022-11-13T16:57:53.207Z,33.40
2022-11-13T17:00:40.444Z,31.73
2022-11-13T17:03:28.166Z,41.68
2022-11-13T17:06:27.639Z,41.77
2022-11-13T17:09:15.958Z,59.27
2022-11-13T17:12:03.038Z,30.23
2022-11-13T17:14:50.466Z,40.67
2022-11-13T17:17:37.604Z,43.95
2022-11-13T17:20:24.840Z,67.42
2022-11-13T17:23:16.113Z,60.90
2022-11-13T17:26:04.691Z,60.58
2022-11-13T17:28:52.340Z,71.90
2022-11-13T17:31:39.963Z,81.42
2022-11-13T17:34:27.698Z,67.70
2022-11-13T17:37:14.916Z,67.47
2022-11-13T17:40:02.130Z,41.28
2022-11-13T17:42:49.627Z,33.78
2022-11-13T17:45:38.247Z,36.28
2022-11-13T17:48:25.428Z,39.03
2022-11-13T17:51:14.480Z,30.05
2022-11-13T17:54:01.590Z,29.67
2022-11-13T17:56:49.081Z,22.48
2022-11-13T17:59:36.656Z,28.80
2022-11-13T18:02:24.421Z,30.52
2022-11-13T18:05:11.487Z,33.58
2022-11-13T18:07:58.513Z,33.88
2022-11-13T18:10:46.180Z,36.42
2022-11-13T18:13:33.279Z,37.00
2022-11-13T18:16:23.267Z,34.58
2022-11-13T18:19:10.558Z,36.10
2022-11-13T18:21:58.267Z,36.42
2022-11-13T18:24:45.760Z,33.83
2022-11-13T18:27:32.962Z,38.13
2022-11-13T18:30:20.736Z,34.48
2022-11-13T18:33:08.221Z,32.93
2022-11-13T18:35:57.247Z,34.60
2022-11-13T18:38:44.604Z,29.23
2022-11-13T18:41:32.736Z,27.58
2022-11-13T18:44:19.943Z,29.67
2022-11-13T18:47:07.256Z,28.95
2022-11-13T18:49:54.813Z,30.80
2022-11-13T18:52:42.039Z,24.92
2022-11-13T18:55:29.373Z,22.00
2022-11-13T18:58:16.394Z,24.25
2022-11-13T19:01:20.671Z,21.55
2022-11-13T19:04:22.167Z,24.77
2022-11-13T19:06:55.044Z,27.27
2022-11-13T19:09:44.206Z,31.42
2022-11-13T19:12:31.528Z,29.45
2022-11-13T19:15:19.229Z,31.65
2022-11-13T19:18:08.063Z,31.48
2022-11-13T19:20:55.603Z,34.50
2022-11-13T19:23:43.030Z,35.00
2022-11-13T19:26:30.322Z,34.25
2022-11-13T19:29:18.253Z,31.27
2022-11-13T19:32:05.550Z,28.05
2022-11-13T19:34:52.845Z,23.05
2022-11-13T19:37:39.818Z,24.50
2022-11-13T19:40:27.366Z,25.62
2022-11-13T19:43:14.737Z,23.50
2022-11-13T19:46:13.565Z,30.37
2022-11-13T19:49:01.438Z,36.50
2022-11-13T19:51:48.859Z,27.82
2022-11-13T19:54:35.966Z,22.42
2022-11-13T19:57:23.309Z,22.13
2022-11-13T20:00:13.146Z,20.82
2022-11-13T20:03:05.034Z,24.05
2022-11-13T20:05:54.830Z,28.42
2022-11-13T20:08:42.455Z,30.12
2022-11-13T20:11:30.390Z,32.93
2022-11-13T20:14:17.866Z,31.90
2022-11-13T20:17:05.425Z,32.75
2022-11-13T20:19:52.219Z,28.73
2022-11-13T20:22:39.458Z,32.55
2022-11-13T20:25:26.834Z,33.92
2022-11-13T20:28:14.083Z,39.63
2022-11-13T20:31:10.075Z,41.75
2022-11-13T20:33:58.272Z,45.15
2022-11-13T20:36:45.607Z,43.35
2022-11-13T20:39:32.902Z,42.10
2022-11-13T20:42:20.085Z,44.27
2022-11-13T20:45:09.236Z,45.80
2022-11-13T20:47:56.341Z,49.60
2022-11-13T20:50:43.973Z,52.43
2022-11-13T20:53:30.874Z,48.90
2022-11-13T20:56:20.237Z,38.50
2022-11-13T20:59:08.017Z,38.92
2022-11-13T21:01:55.530Z,40.78
2022-11-13T21:04:43.000Z,35.23
2022-11-13T21:07:30.444Z,39.98
2022-11-13T21:10:18.180Z,37.48
2022-11-13T21:13:05.761Z,39.60
2022-11-13T21:15:53.023Z,47.03
2022-11-13T21:18:40.414Z,39.78
2022-11-13T21:21:29.090Z,45.65
2022-11-13T21:24:16.645Z,49.98
2022-11-13T21:27:04.303Z,48.00
2022-11-13T21:29:51.610Z,52.40
2022-11-13T21:32:39.653Z,50.05
2022-11-13T21:35:28.997Z,50.83
2022-11-13T21:38:15.913Z,54.73
2022-11-13T21:41:24.661Z,53.55
2022-11-13T21:44:12.332Z,52.17
2022-11-13T21:46:59.901Z,49.03
2022-11-13T21:49:47.091Z,51.40
2022-11-13T21:52:34.885Z,49.33
2022-11-13T21:55:21.906Z,47.98
2022-11-13T21:58:09.363Z,43.40
2022-11-13T22:00:56.484Z,42.50
2022-11-13T22:03:43.433Z,35.20
2022-11-13T22:06:37.184Z,35.08
2022-11-13T22:09:26.013Z,32.08
2022-11-13T22:12:13.245Z,32.08
2022-11-13T22:15:00.737Z,35.68
2022-11-13T22:17:48.433Z,38.15
2022-11-13T22:20:35.785Z,36.25
2022-11-13T22:23:23.265Z,35.95
2022-11-13T22:26:13.018Z,40.15
2022-11-13T22:29:01.091Z,42.03
2022-11-13T22:31:48.534Z,40.28
2022-11-13T22:34:35.971Z,47.67
2022-11-13T22:37:22.754Z,47.67
2022-11-13T22:40:11.143Z,47.17
2022-11-13T22:42:58.270Z,50.55
2022-11-13T22:45:45.981Z,52.83
2022-11-13T22:48:33.909Z,52.40
2022-11-13T22:51:26.779Z,45.63
2022-11-13T22:54:14.421Z,43.40
2022-11-13T22:57:03.731Z,40.43
2022-11-13T22:59:50.664Z,42.55
2022-11-13T23:02:41.844Z,42.08
2022-11-13T23:05:26.669Z,41.63
2022-11-13T23:08:14.286Z,46.77
2022-11-13T23:11:01.084Z,41.53
2022-11-13T23:13:51.020Z,47.45
2022-11-13T23:16:38.228Z,48.30
2022-11-13T23:19:25.828Z,50.23
2022-11-13T23:22:12.970Z,53.28
2022-11-13T23:25:00.901Z,54.25
2022-11-13T23:27:47.985Z,57.78
2022-11-13T23:30:35.161Z,59.65
2022-11-13T23:33:22.800Z,57.70
2022-11-13T23:36:11.740Z,58.10
2022-11-13T23:38:59.117Z,62.15
2022-11-13T23:41:46.343Z,63.78
2022-11-13T23:44:33.617Z,57.48
2022-11-13T23:47:21.214Z,59.35
2022-11-13T23:50:09.939Z,58.35
2022-11-13T23:52:57.336Z,55.63
2022-11-13T23:55:45.154Z,56.30
2022-11-13T23:58:33.196Z,57.98
